createdAt,value
2023-03-20T09:56:42.517Z,8.40
2023-03-20T09:59:10.989Z,7.40
2023-03-20T10:01:48.597Z,7.00
2023-03-20T10:04:15.936Z,7.30
2023-03-20T10:06:43.057Z,6.60
2023-03-20T10:09:36.649Z,6.90
2023-03-20T10:12:42.947Z,5.80
2023-03-20T10:15:52.003Z,6.60
2023-03-20T10:18:26.173Z,6.60
2023-03-20T10:21:13.658Z,6.20
2023-03-20T10:23:43.150Z,6.10
2023-03-20T10:26:11.683Z,6.20
2023-03-20T10:29:05.114Z,6.40
2023-03-20T10:31:52.164Z,6.20
2023-03-20T10:34:28.777Z,5.70
2023-03-20T10:37:16.776Z,6.30
2023-03-20T10:39:51.089Z,6.00
2023-03-20T10:42:29.937Z,6.50
2023-03-20T10:45:27.171Z,6.10
2023-03-20T10:47:54.301Z,6.00
2023-03-20T10:50:23.489Z,5.40
2023-03-20T10:52:51.076Z,5.10
2023-03-20T10:55:24.237Z,4.80
2023-03-20T10:57:54.880Z,4.80
2023-03-20T11:00:23.132Z,4.80
2023-03-20T11:02:50.932Z,4.20
2023-03-20T11:05:20.079Z,4.60
2023-03-20T11:10:19.152Z,4.20
2023-03-20T11:12:47.213Z,3.60
2023-03-20T11:15:21.887Z,3.60
2023-03-20T11:17:57.482Z,3.70
2023-03-20T11:20:35.983Z,10.60
2023-03-20T11:23:07.643Z,4.20
2023-03-20T11:25:38.176Z,3.30
2023-03-20T11:28:26.376Z,2.60
2023-03-20T11:31:04.884Z,2.90
2023-03-20T11:33:44.691Z,2.80
2023-03-20T11:36:27.778Z,2.60
2023-03-20T11:39:14.676Z,2.80
2023-03-20T11:41:50.367Z,2.70
2023-03-20T11:44:30.705Z,3.40
2023-03-20T11:47:05.070Z,3.40
2023-03-20T11:49:45.216Z,3.50
2023-03-20T11:52:13.246Z,3.60
2023-03-20T11:54:46.441Z,3.90
2023-03-20T11:57:34.726Z,4.00
2023-03-20T12:00:10.728Z,3.60
2023-03-20T12:02:41.549Z,3.60
2023-03-20T12:05:35.986Z,3.50
2023-03-20T12:08:13.148Z,3.50
2023-03-20T12:10:42.340Z,4.00
2023-03-20T12:13:42.089Z,4.20
2023-03-20T12:16:13.711Z,5.20
2023-03-20T12:18:59.851Z,5.20
2023-03-20T12:21:32.921Z,5.20
2023-03-20T12:24:09.251Z,5.80
2023-03-20T12:26:41.596Z,4.80
2023-03-20T12:29:32.035Z,5.00
2023-03-20T12:32:17.446Z,5.00
2023-03-20T12:34:47.231Z,4.70
2023-03-20T12:37:14.455Z,5.10
2023-03-20T12:39:54.193Z,4.80
2023-03-20T12:42:26.996Z,4.90
2023-03-20T12:47:50.348Z,4.60
2023-03-20T12:50:36.486Z,4.60
2023-03-20T12:53:03.662Z,4.80
2023-03-20T12:55:30.637Z,4.90
2023-03-20T12:58:43.494Z,5.00
2023-03-20T13:01:20.729Z,5.00
2023-03-20T13:03:54.354Z,4.70
2023-03-20T13:06:39.502Z,5.60
2023-03-20T13:09:35.094Z,4.50
2023-03-20T13:12:15.041Z,5.10
2023-03-20T13:15:00.744Z,4.90
2023-03-20T13:17:53.724Z,5.10
2023-03-20T13:20:28.631Z,5.30
2023-03-20T13:23:05.578Z,4.70
2023-03-20T13:25:46.873Z,5.00
2023-03-20T13:28:13.582Z,5.90
2023-03-20T13:30:44.470Z,4.60
2023-03-20T13:33:35.520Z,4.80
2023-03-20T13:36:12.007Z,4.80
2023-03-20T13:38:44.943Z,5.50
2023-03-20T13:41:11.673Z,4.80
2023-03-20T13:43:41.487Z,4.60
2023-03-20T13:46:18.159Z,5.40
2023-03-20T13:48:45.354Z,4.90
2023-03-20T13:51:30.350Z,4.90
2023-03-20T13:54:16.344Z,4.80
2023-03-20T13:57:06.954Z,5.10
2023-03-20T13:59:36.405Z,4.90
2023-03-20T14:02:17.188Z,5.30
2023-03-20T14:04:44.659Z,5.20
2023-03-20T14:07:33.261Z,4.80
2023-03-20T14:10:21.244Z,4.90
2023-03-20T14:12:55.657Z,4.50
2023-03-20T14:15:26.210Z,4.50
2023-03-20T14:17:53.349Z,4.70
2023-03-20T14:23:35.247Z,4.70
2023-03-20T14:26:29.270Z,4.90
2023-03-20T14:31:32.168Z,4.90
2023-03-20T14:34:11.170Z,4.60
2023-03-20T14:36:50.435Z,5.20
2023-03-20T14:39:23.637Z,5.60
2023-03-20T14:41:57.001Z,5.40
2023-03-20T14:44:28.721Z,5.80
2023-03-20T14:47:04.052Z,5.70
2023-03-20T14:50:07.780Z,5.90
2023-03-20T14:52:44.012Z,6.00
2023-03-20T14:55:34.781Z,6.20
2023-03-20T14:58:03.274Z,5.80
2023-03-20T15:00:34.321Z,6.20
2023-03-20T15:03:09.147Z,5.60
2023-03-20T15:05:37.440Z,5.50
2023-03-20T15:08:07.948Z,5.70
2023-03-20T15:10:37.832Z,5.60
2023-03-20T15:13:06.384Z,5.50
2023-03-20T15:15:34.087Z,5.80
2023-03-20T15:18:07.407Z,5.60
2023-03-20T15:20:35.462Z,13.80
2023-03-20T15:23:02.881Z,7.10
2023-03-20T15:25:39.539Z,7.20
2023-03-20T15:28:16.730Z,6.10
2023-03-20T15:30:47.862Z,5.80
2023-03-20T15:33:25.498Z,5.60
2023-03-20T15:35:53.403Z,6.20
2023-03-20T15:38:20.376Z,7.70
2023-03-20T15:40:51.553Z,6.70
2023-03-20T15:43:23.734Z,8.70
2023-03-20T15:45:57.587Z,6.70
2023-03-20T15:48:33.681Z,6.70
2023-03-20T15:51:04.409Z,6.40
2023-03-20T15:53:36.766Z,7.00
2023-03-20T15:56:17.337Z,7.30
2023-03-20T15:58:45.283Z,7.70
2023-03-20T16:01:17.120Z,19.90
2023-03-20T16:03:43.921Z,10.40
2023-03-20T16:06:11.776Z,9.30
2023-03-20T16:08:38.975Z,9.30
2023-03-20T16:11:12.654Z,8.80
2023-03-20T16:13:41.965Z,8.60
2023-03-20T16:16:13.460Z,9.00
2023-03-20T16:18:47.921Z,9.80
2023-03-20T16:21:21.393Z,9.80
2023-03-20T16:23:51.244Z,10.20
2023-03-20T16:26:19.797Z,11.20
2023-03-20T16:28:58.718Z,14.70
2023-03-20T16:31:34.155Z,14.60
2023-03-20T16:34:06.618Z,14.10
2023-03-20T16:36:36.022Z,13.30
2023-03-20T16:39:07.805Z,13.30
2023-03-20T16:41:39.929Z,15.90
2023-03-20T16:44:08.376Z,17.10
2023-03-20T16:46:35.588Z,17.50
2023-03-20T16:49:34.117Z,23.00
2023-03-20T16:52:03.063Z,24.90
2023-03-20T16:54:31.334Z,21.50
2023-03-20T16:56:58.282Z,21.70
2023-03-20T16:59:25.432Z,21.80
2023-03-20T17:01:54.529Z,20.30
2023-03-20T17:04:23.754Z,18.80
2023-03-20T17:06:57.835Z,16.40
2023-03-20T17:12:05.743Z,15.40
2023-03-20T17:14:34.077Z,14.70
2023-03-20T17:17:01.313Z,15.80
2023-03-20T17:19:28.317Z,17.40
2023-03-20T17:21:57.161Z,19.90
2023-03-20T17:24:24.890Z,20.40
2023-03-20T17:26:53.592Z,20.50
2023-03-20T17:29:21.155Z,20.60
2023-03-20T17:31:48.209Z,19.70
2023-03-20T17:34:15.354Z,20.60
2023-03-20T17:36:43.230Z,20.50
2023-03-20T17:39:20.332Z,21.70
2023-03-20T17:41:47.775Z,20.40
2023-03-20T17:44:15.083Z,25.20
2023-03-20T17:47:02.158Z,19.60
2023-03-20T17:49:33.137Z,19.10
2023-03-20T17:52:00.316Z,19.10
2023-03-20T17:54:32.580Z,18.70
2023-03-20T17:56:59.911Z,18.70
2023-03-20T17:59:30.519Z,18.90
2023-03-20T18:01:57.764Z,19.60
2023-03-20T18:04:25.104Z,19.90
2023-03-20T18:06:57.341Z,18.80
2023-03-20T18:09:29.752Z,18.30
2023-03-20T18:11:56.963Z,22.20
2023-03-20T18:14:25.749Z,20.40
2023-03-20T18:16:53.303Z,16.80
2023-03-20T18:19:27.686Z,18.30
2023-03-20T18:21:56.137Z,18.30
2023-03-20T18:24:23.726Z,23.20
2023-03-20T18:26:51.184Z,19.00
2023-03-20T18:29:18.479Z,25.40
2023-03-20T18:31:46.985Z,21.00
2023-03-20T18:34:15.836Z,18.40
2023-03-20T18:36:45.151Z,18.60
2023-03-20T18:39:22.861Z,26.40
2023-03-20T18:41:50.511Z,23.00
2023-03-20T18:44:17.802Z,16.50
2023-03-20T18:46:44.838Z,18.70
2023-03-20T18:49:18.080Z,17.50
2023-03-20T18:51:46.213Z,13.70
2023-03-20T18:54:13.256Z,14.10
2023-03-20T18:56:44.370Z,17.00
2023-03-20T18:59:12.175Z,15.40
2023-03-20T19:01:39.447Z,12.60
2023-03-20T19:04:22.613Z,12.50
2023-03-20T19:06:49.634Z,11.60
2023-03-20T19:09:17.858Z,12.10
2023-03-20T19:11:47.402Z,13.40
2023-03-20T19:14:14.302Z,12.30
2023-03-20T19:16:42.222Z,11.70
2023-03-20T19:19:11.164Z,12.30
2023-03-20T19:21:38.635Z,14.00
2023-03-20T19:24:08.226Z,14.00
2023-03-20T19:26:36.909Z,15.10
2023-03-20T19:29:09.726Z,16.70
2023-03-20T19:31:37.994Z,17.30
2023-03-20T19:34:07.926Z,17.60
2023-03-20T19:36:36.494Z,18.20
2023-03-20T19:39:06.350Z,20.90
2023-03-20T19:41:34.753Z,20.80
2023-03-20T19:44:02.678Z,21.60
2023-03-20T19:46:41.431Z,20.40
2023-03-20T19:49:20.245Z,20.00
2023-03-20T19:51:48.494Z,20.00
2023-03-20T19:54:15.850Z,21.10
2023-03-20T19:56:46.890Z,21.90
2023-03-20T19:59:17.020Z,20.90
2023-03-20T20:01:45.391Z,19.10
2023-03-20T20:04:13.051Z,20.00
2023-03-20T20:06:41.878Z,20.50
2023-03-20T20:09:09.509Z,21.40
2023-03-20T20:11:37.674Z,23.10
2023-03-20T20:14:08.711Z,14.90
2023-03-20T20:16:39.915Z,17.60
2023-03-20T20:19:07.400Z,21.00
2023-03-20T20:24:23.391Z,16.90
2023-03-20T20:27:14.673Z,16.10
2023-03-20T20:29:46.337Z,15.40
2023-03-20T20:32:13.098Z,15.40
2023-03-20T20:38:14.099Z,16.20
2023-03-20T20:40:17.754Z,16.50
2023-03-20T20:42:47.448Z,16.30
2023-03-20T20:45:15.366Z,15.70
2023-03-20T20:47:44.158Z,14.70
2023-03-20T20:50:13.594Z,15.10
2023-03-20T20:52:41.766Z,13.60
2023-03-20T20:55:22.208Z,14.00
2023-03-20T20:57:53.226Z,14.50
2023-03-20T21:00:22.717Z,13.80
2023-03-20T21:02:49.589Z,13.70
2023-03-20T21:05:17.185Z,14.10
2023-03-20T21:07:46.417Z,14.30
2023-03-20T21:10:16.192Z,14.20
2023-03-20T21:12:58.128Z,14.00
2023-03-20T21:15:26.997Z,14.10
2023-03-20T21:18:01.019Z,13.90
2023-03-20T21:20:30.704Z,13.70
2023-03-20T21:22:58.245Z,13.50
2023-03-20T21:25:39.150Z,14.40
2023-03-20T21:28:07.963Z,13.80
2023-03-20T21:30:44.304Z,14.20
2023-03-20T21:33:20.619Z,14.80
2023-03-20T21:35:49.593Z,15.50
2023-03-20T21:41:10.549Z,14.50
2023-03-20T21:43:37.351Z,15.60
2023-03-20T21:46:45.221Z,15.80
2023-03-20T21:58:03.506Z,16.20
2023-03-20T22:00:52.753Z,17.20
2023-03-20T22:02:55.410Z,16.30
2023-03-20T22:11:56.702Z,15.70
2023-03-20T22:25:49.189Z,14.90
2023-03-20T22:37:10.998Z,14.30
2023-03-20T22:44:59.117Z,14.50
2023-03-20T22:47:27.440Z,14.20
2023-03-20T22:49:55.089Z,14.40
2023-03-20T22:52:31.708Z,15.00
2023-03-20T23:02:37.467Z,13.40
2023-03-20T23:05:06.986Z,14.10
2023-03-20T23:07:37.608Z,14.70
2023-03-20T23:10:09.646Z,14.20
2023-03-20T23:12:38.561Z,15.00
2023-03-20T23:15:08.415Z,15.60
2023-03-20T23:17:37.035Z,17.40
2023-03-20T23:20:13.335Z,17.60
2023-03-20T23:22:44.375Z,17.40
2023-03-20T23:25:20.993Z,16.40
2023-03-20T23:27:59.102Z,19.20
2023-03-20T23:30:30.896Z,21.80
2023-03-20T23:33:07.074Z,22.40
2023-03-20T23:35:35.512Z,24.10
2023-03-20T23:38:05.557Z,26.80
2023-03-20T23:40:39.665Z,29.50
2023-03-20T23:43:09.128Z,30.60
2023-03-20T23:45:38.764Z,33.20
2023-03-20T23:48:07.512Z,34.20
2023-03-20T23:50:51.494Z,36.00
2023-03-20T23:53:21.549Z,40.50
2023-03-20T23:55:52.209Z,41.70
2023-03-20T23:58:26.393Z,42.00
